Time;durP1;ratioP1;P1;durP2;ratioP2;P2;SDS_P1;SDS_P2;PMS_P1;PMS_P2;Temp;Humidity;BMP_temperature;BMP_pressure;BME280_temperature;BME280_humidity;BME280_pressure;Samples;Min_cycle;Max_cycle;Signal;HPM_P1;HPM_P2
2023/05/21 00:00:36;;;;;;;5.80;4.43;;;13.10;72.20;;;;;;6076455;23;20018;-89
2023/05/21 00:03:02;;;;;;;7.97;4.60;;;13.10;72.20;;;;;;6050661;23;20014;-90
2023/05/21 00:05:27;;;;;;;6.80;4.43;;;13.10;72.20;;;;;;6075865;23;20022;-90
2023/05/21 00:07:53;;;;;;;6.50;4.28;;;13.10;72.20;;;;;;6115981;23;20033;-89
2023/05/21 00:10:20;;;;;;;7.30;5.00;;;13.10;72.20;;;;;;6052223;23;20045;-89
2023/05/21 00:12:45;;;;;;;9.95;4.55;;;13.10;72.20;;;;;;6099112;23;20034;-89
2023/05/21 00:15:11;;;;;;;8.30;4.55;;;13.10;72.30;;;;;;6027985;23;20030;-89
2023/05/21 00:17:38;;;;;;;6.93;3.85;;;13.10;72.20;;;;;;6044000;23;20014;-90
2023/05/21 00:20:06;;;;;;;9.00;4.60;;;13.10;72.30;;;;;;6076228;23;20014;-89
2023/05/21 00:22:35;;;;;;;8.95;4.68;;;13.10;72.30;;;;;;6099099;23;20018;-89
2023/05/21 00:25:01;;;;;;;8.52;4.88;;;13.10;72.20;;;;;;6076542;23;20018;-90
2023/05/21 00:27:27;;;;;;;10.10;4.93;;;13.00;72.40;;;;;;6091856;23;20720;-89
2023/05/21 00:29:52;;;;;;;8.18;4.93;;;13.00;72.40;;;;;;6076214;23;20018;-88
2023/05/21 00:32:18;;;;;;;10.57;5.05;;;13.00;72.40;;;;;;6098559;23;20397;-89
2023/05/21 00:34:44;;;;;;;7.40;5.00;;;13.00;72.40;;;;;;6100138;23;20048;-89
2023/05/21 00:37:10;;;;;;;7.60;5.28;;;13.00;72.40;;;;;;6079018;23;20085;-90
2023/05/21 00:39:36;;;;;;;11.55;5.10;;;13.00;72.50;;;;;;6099361;23;20026;-89
2023/05/21 00:42:02;;;;;;;8.07;4.85;;;13.00;72.50;;;;;;6099986;23;20028;-89
2023/05/21 00:44:32;;;;;;;8.88;4.97;;;13.00;72.60;;;;;;6064018;23;20022;-90
2023/05/21 00:47:00;;;;;;;9.52;5.03;;;13.00;72.50;;;;;;6117246;23;20057;-89
2023/05/21 00:49:27;;;;;;;6.50;4.93;;;13.00;72.50;;;;;;6122670;23;20018;-89
2023/05/21 00:51:53;;;;;;;8.13;4.70;;;13.00;72.50;;;;;;6124160;23;20025;-88
2023/05/21 00:54:19;;;;;;;10.50;4.50;;;13.00;72.50;;;;;;6122713;23;20018;-90
2023/05/21 00:56:46;;;;;;;10.32;4.65;;;13.00;72.50;;;;;;6118045;23;20014;-90
2023/05/21 00:59:16;;;;;;;7.28;4.35;;;13.00;72.50;;;;;;6121915;23;20026;-90
2023/05/21 01:01:46;;;;;;;10.45;4.78;;;13.00;72.50;;;;;;6124424;23;20026;-90
2023/05/21 01:04:12;;;;;;;6.72;4.30;;;13.00;72.50;;;;;;6122407;23;20022;-90
2023/05/21 01:06:37;;;;;;;6.30;4.30;;;13.00;72.50;;;;;;6118867;23;20732;-89
2023/05/21 01:09:05;;;;;;;10.05;4.78;;;13.00;72.50;;;;;;6096938;23;20025;-89
2023/05/21 01:11:40;;;;;;;8.70;5.05;;;13.00;72.50;;;;;;6099667;23;20088;-89
2023/05/21 01:14:08;;;;;;;7.47;4.97;;;13.00;72.60;;;;;;6123129;23;20391;-88
2023/05/21 01:16:36;;;;;;;8.77;5.07;;;13.00;72.60;;;;;;6118464;23;20074;-91
2023/05/21 01:19:03;;;;;;;6.80;4.90;;;13.00;72.60;;;;;;6121182;23;20033;-90
2023/05/21 01:21:29;;;;;;;10.57;4.90;;;13.00;72.70;;;;;;6099476;23;20105;-90
2023/05/21 01:23:55;;;;;;;11.57;5.22;;;13.00;72.80;;;;;;6098410;23;20355;-89
2023/05/21 01:26:21;;;;;;;8.65;5.18;;;13.00;72.90;;;;;;6120793;23;20022;-93
2023/05/21 01:28:47;;;;;;;10.65;5.90;;;13.00;73.00;;;;;;6094838;23;20018;-89
2023/05/21 01:31:30;;;;;;;9.38;6.15;;;13.00;73.20;;;;;;6102182;23;20029;-89
2023/05/21 01:34:00;;;;;;;9.60;6.60;;;12.90;73.40;;;;;;6125651;23;20393;-89
2023/05/21 01:36:31;;;;;;;13.03;7.47;;;12.90;73.50;;;;;;6121474;23;20665;-92
2023/05/21 01:39:08;;;;;;;13.68;7.40;;;12.90;73.70;;;;;;6123256;23;20022;-90
2023/05/21 01:41:40;;;;;;;16.95;7.75;;;12.90;73.90;;;;;;6124973;23;20018;-88
2023/05/21 01:44:07;;;;;;;13.27;7.65;;;12.90;74.00;;;;;;6122396;23;20460;-88
2023/05/21 01:46:37;;;;;;;14.05;8.52;;;12.90;74.10;;;;;;6118953;23;20109;-91
2023/05/21 01:49:04;;;;;;;14.07;8.93;;;12.90;74.30;;;;;;6121146;23;20088;-90
2023/05/21 01:51:31;;;;;;;13.00;9.07;;;12.80;74.40;;;;;;6123810;23;20101;-89
2023/05/21 01:53:56;;;;;;;16.15;10.18;;;12.90;74.50;;;;;;6074531;23;20022;-89
2023/05/21 01:56:24;;;;;;;15.55;9.80;;;12.80;74.70;;;;;;6120332;23;20026;-94
2023/05/21 01:58:51;;;;;;;18.55;10.68;;;12.80;74.90;;;;;;6094602;23;20445;-89
2023/05/21 02:01:17;;;;;;;17.77;10.25;;;12.90;75.10;;;;;;6123308;23;20028;-89
2023/05/21 02:03:42;;;;;;;14.05;9.75;;;12.80;75.20;;;;;;6121407;23;20018;-89
2023/05/21 02:06:08;;;;;;;19.95;10.02;;;12.90;75.20;;;;;;6123280;23;20022;-92
2023/05/21 02:08:34;;;;;;;15.30;9.45;;;12.90;75.40;;;;;;6115977;23;20084;-90
2023/05/21 02:11:00;;;;;;;18.30;9.90;;;12.90;75.50;;;;;;6075144;23;20108;-89
2023/05/21 02:13:27;;;;;;;20.13;9.55;;;12.90;75.50;;;;;;6073580;23;20026;-90
2023/05/21 02:15:55;;;;;;;20.65;9.80;;;12.80;75.70;;;;;;6123392;23;20153;-89
2023/05/21 02:18:21;;;;;;;17.25;10.18;;;12.80;75.60;;;;;;6043634;23;20445;-89
2023/05/21 02:20:46;;;;;;;16.45;9.68;;;12.80;75.80;;;;;;6123256;23;20021;-88
2023/05/21 02:23:12;;;;;;;21.42;10.68;;;12.80;75.70;;;;;;6097903;23;20028;-89
2023/05/21 02:25:38;;;;;;;13.40;9.35;;;12.80;75.70;;;;;;6074867;23;20061;-89
2023/05/21 02:28:05;;;;;;;15.40;9.50;;;12.80;75.70;;;;;;6091013;23;20018;-88
2023/05/21 02:30:31;;;;;;;22.88;10.70;;;12.80;75.70;;;;;;6099351;23;20081;-89
2023/05/21 02:32:57;;;;;;;15.32;9.68;;;12.70;75.80;;;;;;6121800;23;20021;-89
2023/05/21 02:35:23;;;;;;;16.70;9.15;;;12.70;75.70;;;;;;6123709;23;20445;-88
2023/05/21 02:37:49;;;;;;;17.02;10.07;;;12.80;75.70;;;;;;6090791;23;20460;-88
2023/05/21 02:40:15;;;;;;;18.42;9.80;;;12.70;75.80;;;;;;6123070;23;20445;-87
2023/05/21 02:42:41;;;;;;;17.10;9.02;;;12.70;75.80;;;;;;6097191;23;20028;-89
2023/05/21 02:45:08;;;;;;;13.45;9.20;;;12.70;75.80;;;;;;6123310;23;20024;-89
2023/05/21 02:47:34;;;;;;;15.73;9.40;;;12.60;75.70;;;;;;6066317;23;20084;-89
2023/05/21 02:50:00;;;;;;;22.33;9.43;;;12.50;75.70;;;;;;6098730;23;20022;-89
2023/05/21 02:52:26;;;;;;;14.10;9.55;;;12.50;75.70;;;;;;6097023;23;20029;-89
2023/05/21 02:54:52;;;;;;;15.25;8.60;;;12.50;75.70;;;;;;6123678;23;20021;-89
2023/05/21 02:57:18;;;;;;;17.20;9.40;;;12.50;75.70;;;;;;6114461;23;20049;-86
2023/05/21 02:59:44;;;;;;;17.40;8.98;;;12.50;75.70;;;;;;6122656;23;20025;-89
2023/05/21 03:02:10;;;;;;;15.05;9.27;;;12.50;75.70;;;;;;6121718;23;20456;-89
2023/05/21 03:04:44;;;;;;;12.43;7.68;;;12.50;75.70;;;;;;6122688;23;20022;-89
2023/05/21 03:07:14;;;;;;;13.68;8.77;;;12.40;75.70;;;;;;6114954;23;20054;-90
2023/05/21 03:09:42;;;;;;;16.58;8.57;;;12.30;75.70;;;;;;6122977;23;20018;-89
2023/05/21 03:12:08;;;;;;;15.82;9.07;;;12.30;75.60;;;;;;6097552;23;20113;-89
2023/05/21 03:14:34;;;;;;;17.00;10.15;;;12.30;75.70;;;;;;6122522;23;20049;-89
2023/05/21 03:17:02;;;;;;;19.33;10.38;;;12.30;75.60;;;;;;6116181;23;20053;-89
2023/05/21 03:19:29;;;;;;;17.08;10.45;;;12.30;75.60;;;;;;6121663;23;20021;-88
2023/05/21 03:21:55;;;;;;;18.67;9.80;;;12.30;75.70;;;;;;6099171;23;20028;-89
2023/05/21 03:24:21;;;;;;;16.23;10.75;;;12.20;75.70;;;;;;6097970;23;20017;-90
2023/05/21 03:26:48;;;;;;;19.25;12.15;;;12.20;75.80;;;;;;6116853;23;20014;-92
2023/05/21 03:29:14;;;;;;;23.80;12.30;;;12.20;75.80;;;;;;6120496;23;20029;-89
2023/05/21 03:31:39;;;;;;;22.88;11.70;;;12.20;75.90;;;;;;6098589;23;20018;-88
2023/05/21 03:34:07;;;;;;;19.88;12.25;;;12.20;76.00;;;;;;6121712;23;20380;-90
2023/05/21 03:36:33;;;;;;;18.17;11.60;;;12.20;76.00;;;;;;6093689;23;20010;-90
2023/05/21 03:38:59;;;;;;;23.45;12.23;;;12.20;76.00;;;;;;6072463;23;20426;-89
2023/05/21 03:41:25;;;;;;;19.80;11.13;;;12.20;76.10;;;;;;6122960;23;20076;-88
2023/05/21 03:43:51;;;;;;;20.10;10.52;;;12.10;76.10;;;;;;6049292;23;20117;-88
2023/05/21 03:46:17;;;;;;;16.08;10.13;;;12.10;76.10;;;;;;6121119;23;20045;-90
2023/05/21 03:48:43;;;;;;;22.25;10.40;;;12.10;76.20;;;;;;6117147;23;20033;-89
2023/05/21 03:51:45;;;;;;;17.75;10.23;;;12.10;76.10;;;;;;6123738;23;20024;-93
2023/05/21 03:54:11;;;;;;;20.60;9.82;;;12.10;76.10;;;;;;6080618;23;20096;-90
2023/05/21 03:56:40;;;;;;;15.25;8.75;;;12.10;76.10;;;;;;6094607;23;20045;-92
2023/05/21 03:59:06;;;;;;;16.52;8.57;;;12.10;76.10;;;;;;6119097;23;20022;-90
2023/05/21 04:01:32;;;;;;;16.02;8.93;;;12.10;76.00;;;;;;6098823;23;20068;-91
2023/05/21 04:04:04;;;;;;;14.88;8.35;;;12.10;76.00;;;;;;6120764;23;20026;-90
2023/05/21 04:06:30;;;;;;;14.65;8.10;;;12.10;76.00;;;;;;6046236;23;20045;-92
2023/05/21 04:08:55;;;;;;;15.02;8.80;;;12.10;76.00;;;;;;6070610;23;20092;-88
2023/05/21 04:11:21;;;;;;;16.95;8.45;;;12.10;76.00;;;;;;6098512;23;20022;-88
2023/05/21 04:13:47;;;;;;;13.35;7.60;;;12.10;76.10;;;;;;6096737;23;20033;-88
2023/05/21 04:16:17;;;;;;;13.57;7.93;;;12.10;76.00;;;;;;6121119;23;20076;-91
2023/05/21 04:18:44;;;;;;;18.73;8.05;;;12.10;76.00;;;;;;6114054;23;20575;-89
2023/05/21 04:21:10;;;;;;;17.88;7.95;;;12.10;75.90;;;;;;6119881;23;20026;-89
2023/05/21 04:23:36;;;;;;;14.85;8.48;;;12.10;76.00;;;;;;6070073;23;20018;-89
2023/05/21 04:26:02;;;;;;;15.23;8.02;;;12.10;76.00;;;;;;6119966;23;20445;-89
2023/05/21 04:28:28;;;;;;;11.35;7.50;;;12.10;75.90;;;;;;6113571;23;20097;-88
2023/05/21 04:30:55;;;;;;;16.65;7.78;;;12.20;75.90;;;;;;6122979;23;20041;-89
2023/05/21 04:33:21;;;;;;;13.45;7.53;;;12.20;75.90;;;;;;6122856;23;20037;-89
2023/05/21 04:35:50;;;;;;;18.40;7.63;;;12.20;75.90;;;;;;6100208;23;20157;-88
2023/05/21 04:38:19;;;;;;;13.45;6.90;;;12.20;76.00;;;;;;6117081;23;20053;-89
2023/05/21 04:40:49;;;;;;;17.40;7.05;;;12.30;76.00;;;;;;6123760;23;20028;-89
2023/05/21 04:43:16;;;;;;;18.52;7.13;;;12.30;76.10;;;;;;6122918;23;20054;-89
2023/05/21 04:45:44;;;;;;;13.70;6.78;;;12.40;76.00;;;;;;6124264;23;20345;-89
2023/05/21 04:48:10;;;;;;;12.38;7.05;;;12.50;76.10;;;;;;6115183;23;20033;-89
2023/05/21 04:50:36;;;;;;;12.57;6.85;;;12.50;76.00;;;;;;6100018;23;20025;-88
2023/05/21 04:53:02;;;;;;;12.15;6.85;;;12.50;76.00;;;;;;6122481;23;20018;-88
2023/05/21 04:55:28;;;;;;;14.75;6.97;;;12.50;76.00;;;;;;6124171;23;20018;-89
2023/05/21 04:57:54;;;;;;;12.35;6.88;;;12.50;76.00;;;;;;6115862;23;20449;-88
2023/05/21 05:00:21;;;;;;;15.13;6.75;;;12.50;76.10;;;;;;6123845;23;20069;-88
2023/05/21 05:02:47;;;;;;;15.85;6.85;;;12.50;76.00;;;;;;6098214;23;20690;-89
2023/05/21 05:05:12;;;;;;;19.52;6.57;;;12.60;76.00;;;;;;6123741;23;20026;-88
2023/05/21 05:07:38;;;;;;;13.43;5.55;;;12.60;76.00;;;;;;6067673;23;20024;-88
2023/05/21 05:10:04;;;;;;;18.15;6.70;;;12.60;76.00;;;;;;6124039;23;20049;-89
2023/05/21 05:12:30;;;;;;;15.68;6.50;;;12.70;76.00;;;;;;6074078;23;20026;-89
2023/05/21 05:14:56;;;;;;;13.85;6.70;;;12.70;76.00;;;;;;6098890;23;20322;-89
2023/05/21 05:17:23;;;;;;;13.73;6.47;;;12.70;76.00;;;;;;6087332;23;25948;-89
2023/05/21 05:19:49;;;;;;;12.82;7.35;;;12.70;76.00;;;;;;6121117;23;20426;-89
2023/05/21 05:22:15;;;;;;;13.88;6.90;;;12.70;76.00;;;;;;6094905;23;20117;-89
2023/05/21 05:24:40;;;;;;;14.50;6.55;;;12.70;75.90;;;;;;6072950;23;20054;-89
2023/05/21 05:27:06;;;;;;;16.67;7.18;;;12.70;76.00;;;;;;6090981;23;20018;-88
2023/05/21 05:29:32;;;;;;;13.95;6.60;;;12.70;76.00;;;;;;6099105;23;20057;-89
2023/05/21 05:31:58;;;;;;;17.05;6.75;;;12.70;76.00;;;;;;6099362;23;20028;-89
2023/05/21 05:34:23;;;;;;;14.45;7.35;;;12.70;75.90;;;;;;6121805;23;20029;-89
2023/05/21 05:36:49;;;;;;;15.75;7.18;;;12.70;76.00;;;;;;6091814;23;20220;-90
2023/05/21 05:39:15;;;;;;;16.08;7.03;;;12.80;76.00;;;;;;6098439;23;20125;-88
2023/05/21 05:41:41;;;;;;;15.75;7.57;;;12.80;76.00;;;;;;6099546;23;20025;-88
2023/05/21 05:44:07;;;;;;;16.20;7.18;;;12.90;76.00;;;;;;6097958;23;20030;-90
2023/05/21 05:46:32;;;;;;;17.38;7.45;;;13.00;76.00;;;;;;6118476;23;20053;-92
2023/05/21 05:48:58;;;;;;;15.00;7.07;;;13.00;75.90;;;;;;6120119;23;20026;-89
2023/05/21 05:51:24;;;;;;;14.18;6.72;;;13.10;75.90;;;;;;6123659;23;20022;-88
2023/05/21 05:53:50;;;;;;;14.48;7.18;;;13.10;75.80;;;;;;6097647;23;20453;-88
2023/05/21 05:56:16;;;;;;;12.32;7.03;;;13.20;75.70;;;;;;6097193;23;20018;-91
2023/05/21 05:58:42;;;;;;;15.90;6.63;;;13.30;75.60;;;;;;6092410;23;20040;-88
2023/05/21 06:01:07;;;;;;;13.57;6.25;;;13.30;75.50;;;;;;6074603;23;20021;-89
2023/05/21 06:03:33;;;;;;;15.50;6.78;;;13.30;75.40;;;;;;6122006;23;20096;-89
2023/05/21 06:05:59;;;;;;;11.75;5.60;;;13.50;75.10;;;;;;6075978;23;20018;-90
2023/05/21 06:08:25;;;;;;;12.27;6.53;;;13.50;75.00;;;;;;6114562;23;20381;-90
2023/05/21 06:10:50;;;;;;;14.70;5.97;;;13.50;75.00;;;;;;6050161;23;20018;-89
2023/05/21 06:13:16;;;;;;;18.63;6.28;;;13.60;75.00;;;;;;6121813;23;20018;-92
2023/05/21 06:15:42;;;;;;;12.55;6.30;;;13.70;75.00;;;;;;6074681;23;20105;-90
2023/05/21 06:18:08;;;;;;;12.25;5.78;;;13.80;74.90;;;;;;6114699;23;20049;-88
2023/05/21 06:20:34;;;;;;;12.02;6.35;;;13.90;74.50;;;;;;6098322;23;20384;-90
2023/05/21 06:23:00;;;;;;;12.98;5.93;;;13.90;74.30;;;;;;6097239;23;20938;-89
2023/05/21 06:25:25;;;;;;;11.88;5.45;;;13.80;74.30;;;;;;6074477;23;20022;-88
2023/05/21 06:27:51;;;;;;;10.32;5.45;;;13.80;74.30;;;;;;6114536;23;20441;-89
2023/05/21 06:30:17;;;;;;;11.18;5.53;;;13.90;74.20;;;;;;6122265;23;20029;-89
2023/05/21 06:32:43;;;;;;;14.38;5.85;;;13.90;74.20;;;;;;6121453;23;20330;-89
2023/05/21 06:35:09;;;;;;;11.35;5.50;;;14.00;74.10;;;;;;6099256;23;20449;-89
2023/05/21 06:37:35;;;;;;;18.67;6.40;;;14.00;73.90;;;;;;6114867;23;20479;-89
2023/05/21 06:40:01;;;;;;;11.43;5.28;;;14.10;74.00;;;;;;6097811;23;20021;-89
2023/05/21 06:42:27;;;;;;;11.27;5.47;;;14.20;73.80;;;;;;6121798;23;20089;-89
2023/05/21 06:44:53;;;;;;;11.02;5.50;;;14.40;73.80;;;;;;6121621;23;20381;-88
2023/05/21 06:47:18;;;;;;;10.73;4.93;;;14.40;73.30;;;;;;6115086;23;20089;-87
2023/05/21 06:49:44;;;;;;;9.30;5.00;;;14.50;73.20;;;;;;6097366;23;20018;-87
2023/05/21 06:52:10;;;;;;;10.35;5.43;;;14.60;73.00;;;;;;6072737;23;20032;-89
2023/05/21 06:54:36;;;;;;;12.68;5.25;;;14.50;72.70;;;;;;6074610;23;20022;-89
2023/05/21 06:57:01;;;;;;;10.68;4.85;;;14.50;72.70;;;;;;6091220;23;20026;-89
2023/05/21 06:59:27;;;;;;;13.90;5.05;;;14.50;72.50;;;;;;6121390;23;20025;-90
2023/05/21 07:01:53;;;;;;;8.20;4.80;;;14.50;72.20;;;;;;6123834;23;20018;-89
2023/05/21 07:04:19;;;;;;;12.93;5.32;;;14.50;72.30;;;;;;6121414;23;20018;-89
2023/05/21 07:06:44;;;;;;;10.13;4.97;;;14.40;72.40;;;;;;6093855;23;20021;-91
2023/05/21 07:09:10;;;;;;;12.75;5.38;;;14.50;72.50;;;;;;6122550;23;20057;-88
2023/05/21 07:11:36;;;;;;;13.02;4.90;;;14.60;72.30;;;;;;6099048;23;20311;-90
2023/05/21 07:14:05;;;;;;;12.93;4.75;;;14.70;72.40;;;;;;6124997;23;20026;-90
2023/05/21 07:16:30;;;;;;;11.70;4.50;;;14.70;71.70;;;;;;6118476;23;20013;-90
2023/05/21 07:18:56;;;;;;;9.57;4.72;;;14.70;71.90;;;;;;6096288;23;20029;-89
2023/05/21 07:21:23;;;;;;;8.95;4.75;;;14.60;72.00;;;;;;6123690;23;20022;-88
2023/05/21 07:23:49;;;;;;;10.18;4.80;;;14.60;71.70;;;;;;6097011;23;20041;-89
2023/05/21 07:26:15;;;;;;;9.60;4.65;;;14.60;71.70;;;;;;6097093;23;20022;-92
2023/05/21 07:28:41;;;;;;;12.55;4.93;;;14.60;72.00;;;;;;6115728;23;20072;-90
2023/05/21 07:31:11;;;;;;;9.65;4.45;;;14.70;72.10;;;;;;6122607;23;20045;-89
2023/05/21 07:33:36;;;;;;;8.48;4.22;;;14.80;71.90;;;;;;6121213;23;20018;-91
2023/05/21 07:36:03;;;;;;;8.93;4.47;;;14.80;71.70;;;;;;6122704;23;20022;-89
2023/05/21 07:38:29;;;;;;;11.17;4.10;;;14.80;71.40;;;;;;6091468;23;20341;-89
2023/05/21 07:40:55;;;;;;;10.27;4.10;;;14.70;71.40;;;;;;6049578;23;20212;-90
2023/05/21 07:43:21;;;;;;;11.75;4.57;;;14.70;71.60;;;;;;6073125;23;20022;-88
2023/05/21 07:45:47;;;;;;;12.80;4.60;;;14.60;71.70;;;;;;6074327;23;20033;-89
2023/05/21 07:48:13;;;;;;;7.88;4.20;;;14.60;71.70;;;;;;6065521;23;20026;-89
2023/05/21 07:50:38;;;;;;;11.02;4.53;;;14.70;71.80;;;;;;6073993;23;20053;-89
2023/05/21 07:53:04;;;;;;;6.60;4.28;;;14.70;72.00;;;;;;6095964;23;20465;-89
2023/05/21 07:55:30;;;;;;;9.32;4.45;;;14.70;71.90;;;;;;6097720;23;20056;-89
2023/05/21 07:57:56;;;;;;;9.00;4.22;;;14.70;71.80;;;;;;6088905;23;20644;-89
2023/05/21 08:00:23;;;;;;;8.18;4.32;;;14.80;71.60;;;;;;6096996;23;20432;-89
2023/05/21 08:02:49;;;;;;;10.55;4.50;;;14.90;71.90;;;;;;6097875;23;20029;-89
2023/05/21 08:05:17;;;;;;;10.27;4.43;;;14.90;71.60;;;;;;6099038;23;20014;-87
2023/05/21 08:07:43;;;;;;;8.50;3.95;;;15.00;71.40;;;;;;6067419;23;20021;-89
2023/05/21 08:10:09;;;;;;;10.93;4.38;;;15.00;71.30;;;;;;6100325;23;20500;-89
2023/05/21 08:12:35;;;;;;;8.88;4.22;;;15.00;71.20;;;;;;6058775;23;20022;-89
2023/05/21 08:15:01;;;;;;;12.43;4.80;;;15.00;71.40;;;;;;6099685;23;20025;-89
2023/05/21 08:17:29;;;;;;;13.20;4.20;;;15.10;71.50;;;;;;6091521;23;20013;-93
2023/05/21 08:19:55;;;;;;;9.80;4.40;;;15.20;71.40;;;;;;6100124;23;20021;-90
2023/05/21 08:22:21;;;;;;;6.63;3.92;;;15.40;71.50;;;;;;6097989;23;20026;-90
2023/05/21 08:24:47;;;;;;;8.45;3.88;;;15.50;71.30;;;;;;6052419;23;20021;-88
2023/05/21 08:27:14;;;;;;;13.32;4.53;;;15.60;71.40;;;;;;6067586;23;20024;-89
2023/05/21 08:29:41;;;;;;;12.35;4.40;;;15.70;71.10;;;;;;6075364;23;20092;-91
2023/05/21 08:32:08;;;;;;;8.73;4.22;;;15.60;70.90;;;;;;6073986;23;20014;-90
2023/05/21 08:34:34;;;;;;;7.78;3.88;;;15.60;70.50;;;;;;6073943;23;20018;-90
2023/05/21 08:37:00;;;;;;;7.07;4.15;;;15.60;70.90;;;;;;6075457;23;20017;-90
2023/05/21 08:39:26;;;;;;;9.73;3.95;;;15.60;70.70;;;;;;6098409;23;20022;-89
2023/05/21 08:42:01;;;;;;;9.73;4.30;;;15.60;70.60;;;;;;6099582;23;20025;-88
2023/05/21 08:44:32;;;;;;;9.52;4.38;;;15.60;70.70;;;;;;6122961;23;20077;-89
2023/05/21 08:46:58;;;;;;;8.88;4.47;;;15.60;70.70;;;;;;6116674;23;20018;-88
2023/05/21 08:49:41;;;;;;;12.30;4.00;;;15.60;70.40;;;;;;6097466;23;20052;-95
2023/05/21 08:55:52;;;;;;;7.43;4.03;;;16.00;70.40;;;;;;6011387;23;20455;-96
2023/05/21 08:59:16;;;;;;;7.22;4.30;;;16.00;69.90;;;;;;5896380;23;20032;-96
2023/05/21 09:01:43;;;;;;;7.40;4.10;;;16.00;70.00;;;;;;5957872;23;20028;-91
2023/05/21 09:04:17;;;;;;;8.02;4.25;;;16.00;69.80;;;;;;6067789;23;20028;-96
2023/05/21 09:06:43;;;;;;;10.75;4.47;;;15.90;69.70;;;;;;6117371;23;20025;-94
2023/05/21 09:09:18;;;;;;;7.03;3.83;;;16.00;69.80;;;;;;6070779;23;20394;-92
2023/05/21 09:11:48;;;;;;;11.30;4.22;;;16.00;69.50;;;;;;6122584;23;20030;-96
2023/05/21 09:14:15;;;;;;;7.97;3.80;;;16.00;69.80;;;;;;6080432;23;20018;-94
2023/05/21 09:16:41;;;;;;;10.65;4.28;;;16.10;69.60;;;;;;6069606;23;20084;-93
2023/05/21 09:19:07;;;;;;;8.00;4.18;;;16.10;69.30;;;;;;6106012;23;20014;-93
2023/05/21 09:21:33;;;;;;;10.02;4.22;;;16.00;69.10;;;;;;6097593;23;20353;-95
2023/05/21 09:24:00;;;;;;;11.55;4.18;;;16.00;69.00;;;;;;6071397;23;20112;-93
2023/05/21 09:26:29;;;;;;;10.47;4.63;;;16.00;69.10;;;;;;6117896;23;20100;-91
2023/05/21 09:28:57;;;;;;;8.07;4.25;;;16.00;69.20;;;;;;6060312;23;20098;-94
2023/05/21 09:31:28;;;;;;;8.00;4.25;;;16.00;69.40;;;;;;6112101;23;20022;-93
2023/05/21 09:33:56;;;;;;;;;;;16.00;69.40;;;;;;6071922;23;20029;-94
2023/05/21 09:36:29;;;;;;;11.68;4.57;;;16.00;68.80;;;;;;6095090;23;20045;-96
2023/05/21 09:38:57;;;;;;;9.10;4.20;;;16.00;69.60;;;;;;6071546;23;20029;-94
2023/05/21 09:41:35;;;;;;;10.15;4.10;;;16.10;69.50;;;;;;6097879;23;20025;-92
2023/05/21 09:44:09;;;;;;;9.65;4.53;;;16.10;69.30;;;;;;6050231;23;20018;-96
2023/05/21 09:47:01;;;;;;;9.98;4.30;;;16.10;69.30;;;;;;6069040;23;20021;-94
2023/05/21 09:49:44;;;;;;;5.97;3.72;;;16.20;68.90;;;;;;6037781;23;20126;-94
2023/05/21 09:52:10;;;;;;;9.85;4.25;;;16.20;68.50;;;;;;6082392;23;20026;-92
2023/05/21 09:54:46;;;;;;;12.13;4.47;;;16.20;69.00;;;;;;6051906;23;20014;-94
2023/05/21 09:57:13;;;;;;;9.30;4.05;;;16.40;69.00;;;;;;6089733;23;20109;-93
2023/05/21 09:59:41;;;;;;;11.15;3.92;;;16.40;68.80;;;;;;6098770;23;20018;-95
2023/05/21 10:02:19;;;;;;;10.25;4.32;;;16.50;68.70;;;;;;6025659;23;20018;-95
2023/05/21 10:04:49;;;;;;;13.95;4.10;;;16.50;68.30;;;;;;6058413;23;20466;-94
2023/05/21 10:07:28;;;;;;;14.23;4.18;;;16.50;68.30;;;;;;6073485;23;20025;-91
2023/05/21 10:10:13;;;;;;;9.35;4.47;;;16.50;68.30;;;;;;6055302;23;20068;-95
2023/05/21 10:12:55;;;;;;;9.35;4.20;;;16.60;68.10;;;;;;6094871;23;20022;-96
2023/05/21 10:15:26;;;;;;;9.02;3.80;;;16.60;68.00;;;;;;6096369;23;20045;-94
2023/05/21 10:17:56;;;;;;;;;;;16.50;68.00;;;;;;6065648;23;20049;-92
2023/05/21 10:20:25;;;;;;;12.85;3.80;;;16.40;67.50;;;;;;6060025;23;20231;-95
2023/05/21 10:26:01;;;;;;;8.93;3.85;;;16.50;68.50;;;;;;6033229;23;20105;-95
2023/05/21 10:28:53;;;;;;;9.82;3.78;;;16.60;68.20;;;;;;6088856;23;20504;-96
2023/05/21 10:31:22;;;;;;;7.03;3.58;;;16.50;67.90;;;;;;6098799;23;20026;-90
2023/05/21 10:33:53;;;;;;;10.95;4.00;;;16.50;68.40;;;;;;6095972;23;20026;-91
2023/05/21 10:36:20;;;;;;;;;;;16.50;67.90;;;;;;6094806;23;20037;-92
2023/05/21 10:38:49;;;;;;;8.75;4.10;;;16.50;67.30;;;;;;6068810;23;19921;-92
2023/05/21 10:41:17;;;;;;;8.45;4.38;;;16.60;68.00;;;;;;6072686;23;20102;-93
2023/05/21 10:43:53;;;;;;;6.72;4.40;;;16.60;67.80;;;;;;6081585;23;20129;-91
2023/05/21 10:46:44;;;;;;;9.20;4.68;;;16.50;67.70;;;;;;6071893;23;20046;-92
2023/05/21 10:49:22;;;;;;;10.02;3.97;;;16.60;67.60;;;;;;6059379;23;20033;-90
2023/05/21 10:52:23;;;;;;;10.23;4.22;;;16.50;67.40;;;;;;6098838;23;20101;-94
2023/05/21 10:54:57;;;;;;;10.90;4.22;;;16.60;67.80;;;;;;6073804;23;20022;-92
2023/05/21 10:58:03;;;;;;;10.07;4.47;;;16.70;68.00;;;;;;6049952;23;20034;-96
2023/05/21 11:00:34;;;;;;;9.15;3.90;;;16.70;67.60;;;;;;6083605;23;20393;-92
2023/05/21 11:03:07;;;;;;;8.90;4.15;;;16.70;67.60;;;;;;6013768;23;20062;-95
2023/05/21 11:06:19;;;;;;;9.70;3.92;;;16.70;67.50;;;;;;6030127;23;20025;-96
2023/05/21 11:09:22;;;;;;;8.05;3.97;;;16.70;67.40;;;;;;6097963;23;20029;-96
2023/05/21 11:11:58;;;;;;;9.88;4.13;;;16.70;67.80;;;;;;6077111;23;20022;-95
2023/05/21 11:15:03;;;;;;;;;;;;;;;;;;;;;
2023/05/21 11:17:46;;;;;;;8.15;4.55;;;16.80;67.30;;;;;;5961645;24;20024;-96
2023/05/21 11:20:15;;;;;;;8.77;4.82;;;16.80;67.20;;;;;;6077059;23;20021;-93
2023/05/21 11:26:24;;;;;;;7.20;4.68;;;16.70;68.00;;;;;;6125358;23;20397;-92
2023/05/21 11:29:19;;;;;;;13.32;5.18;;;16.70;68.20;;;;;;6072121;23;20022;-92
2023/05/21 11:32:22;;;;;;;10.93;5.32;;;16.70;68.10;;;;;;6100330;23;20025;-94
2023/05/21 11:35:10;;;;;;;10.18;5.45;;;16.80;68.00;;;;;;6097276;23;20018;-94
2023/05/21 11:38:26;;;;;;;10.07;5.32;;;16.80;68.10;;;;;;6097805;23;20445;-94
2023/05/21 11:40:53;;;;;;;12.52;5.90;;;16.90;68.40;;;;;;6084107;23;20022;-94
2023/05/21 11:43:22;;;;;;;13.93;5.78;;;16.90;68.20;;;;;;6122321;23;20682;-90
2023/05/21 11:45:57;;;;;;;10.52;5.70;;;16.90;68.20;;;;;;6076468;23;20022;-93
2023/05/21 11:48:26;;;;;;;9.57;5.88;;;17.00;68.40;;;;;;6116189;23;20028;-93
2023/05/21 11:50:52;;;;;;;15.43;5.78;;;17.00;68.30;;;;;;6123253;23;20057;-92
2023/05/21 11:53:20;;;;;;;10.18;5.03;;;17.00;68.20;;;;;;6073950;23;20069;-92
2023/05/21 11:55:46;;;;;;;11.82;5.25;;;17.10;68.60;;;;;;6123366;23;20101;-91
2023/05/21 11:58:13;;;;;;;12.90;5.70;;;17.20;68.70;;;;;;6115099;23;20022;-91
2023/05/21 12:00:42;;;;;;;11.15;5.50;;;17.40;68.60;;;;;;6124477;23;20345;-93
2023/05/21 12:03:13;;;;;;;12.38;6.10;;;17.40;68.40;;;;;;6123006;23;20089;-91
2023/05/21 12:05:56;;;;;;;17.27;6.13;;;17.40;68.50;;;;;;6125462;23;20108;-93
2023/05/21 12:08:31;;;;;;;15.00;6.88;;;17.50;68.70;;;;;;6017794;23;20038;-93
2023/05/21 12:11:23;;;;;;;10.63;6.80;;;17.50;68.50;;;;;;6016843;23;20018;-91
2023/05/21 12:14:01;;;;;;;12.60;7.60;;;17.50;68.40;;;;;;6025835;23;20506;-90
2023/05/21 12:17:17;;;;;;;;;;;;;;;;;;;;;
2023/05/21 12:19:54;;;;;;;16.15;7.40;;;17.50;68.50;;;;;;6025658;23;20488;-92
2023/05/21 12:22:42;;;;;;;14.27;7.43;;;17.50;68.40;;;;;;6026275;23;20022;-92
2023/05/21 12:25:09;;;;;;;13.70;7.68;;;17.50;68.60;;;;;;6056589;23;20019;-93
2023/05/21 12:28:07;;;;;;;9.43;6.88;;;17.40;68.50;;;;;;6060708;23;20022;-94
2023/05/21 12:30:33;;;;;;;14.77;8.10;;;17.40;68.30;;;;;;5984324;23;20447;-91
2023/05/21 12:34:08;;;;;;;;;;;;;;;;;;;;;
2023/05/21 12:36:32;;;;;;;14.90;7.88;;;17.40;68.60;;;;;;5980055;23;20030;-94
2023/05/21 12:39:41;;;;;;;14.45;8.63;;;17.50;68.60;;;;;;5972663;23;20024;-94
2023/05/21 12:42:28;;;;;;;16.58;8.93;;;17.50;68.70;;;;;;6094418;23;20168;-93
2023/05/21 12:45:00;;;;;;;14.68;9.30;;;17.60;68.20;;;;;;6107017;23;20099;-91
2023/05/21 12:47:27;;;;;;;12.23;8.43;;;17.60;68.50;;;;;;6077740;23;20093;-92
2023/05/21 12:49:56;;;;;;;16.85;9.70;;;17.60;68.60;;;;;;6124347;23;20104;-93
2023/05/21 12:52:26;;;;;;;13.63;9.43;;;17.60;68.60;;;;;;6105976;23;20043;-92
2023/05/21 12:55:20;;;;;;;13.32;9.65;;;17.70;68.90;;;;;;6103134;23;20077;-93
2023/05/21 12:57:50;;;;;;;18.95;10.25;;;17.80;69.00;;;;;;6116378;23;20053;-91
2023/05/21 13:00:25;;;;;;;14.50;10.25;;;17.80;68.80;;;;;;6100280;23;20021;-91
2023/05/21 13:04:09;;;;;;;15.23;9.88;;;17.80;68.70;;;;;;6086711;23;20406;-95
2023/05/21 13:07:09;;;;;;;20.13;11.48;;;17.80;69.70;;;;;;6030533;23;20022;-94
2023/05/21 13:09:37;;;;;;;19.58;11.00;;;17.80;69.20;;;;;;6003739;23;20028;-92